sensor_id;sensor_type;location;lat;lon;timestamp;P1;durP1;ratioP1;P2;durP2;ratioP2
36221;SDS011;22266;52.340;4.962;2023-02-01T00:00:25;0.75;;;0.50;;
36221;SDS011;22266;52.340;4.962;2023-02-01T00:02:55;2.00;;;1.00;;
36221;SDS011;22266;52.340;4.962;2023-02-01T00:05:24;0.50;;;0.25;;
36221;SDS011;22266;52.340;4.962;2023-02-01T00:07:51;4.75;;;2.50;;
36221;SDS011;22266;52.340;4.962;2023-02-01T00:10:17;4.00;;;1.00;;
36221;SDS011;22266;52.340;4.962;2023-02-01T00:12:44;2.00;;;2.00;;
36221;SDS011;22266;52.340;4.962;2023-02-01T00:15:10;2.00;;;2.00;;
36221;SDS011;22266;52.340;4.962;2023-02-01T00:17:37;3.00;;;2.00;;
36221;SDS011;22266;52.340;4.962;2023-02-01T00:20:04;1.00;;;1.00;;
36221;SDS011;22266;52.340;4.962;2023-02-01T00:22:31;4.50;;;2.00;;
36221;SDS011;22266;52.340;4.962;2023-02-01T00:24:57;5.00;;;4.00;;
36221;SDS011;22266;52.340;4.962;2023-02-01T00:27:23;1.75;;;1.75;;
36221;SDS011;22266;52.340;4.962;2023-02-01T00:29:50;1.00;;;1.00;;
36221;SDS011;22266;52.340;4.962;2023-02-01T00:32:16;2.50;;;2.50;;
36221;SDS011;22266;52.340;4.962;2023-02-01T00:34:43;2.00;;;2.00;;
36221;SDS011;22266;52.340;4.962;2023-02-01T00:37:09;5.50;;;2.25;;
36221;SDS011;22266;52.340;4.962;2023-02-01T00:39:36;6.00;;;3.00;;
36221;SDS011;22266;52.340;4.962;2023-02-01T00:42:02;4.25;;;1.00;;
36221;SDS011;22266;52.340;4.962;2023-02-01T00:44:29;4.00;;;2.00;;
36221;SDS011;22266;52.340;4.962;2023-02-01T00:46:59;5.25;;;3.50;;
36221;SDS011;22266;52.340;4.962;2023-02-01T00:49:26;4.25;;;3.50;;
36221;SDS011;22266;52.340;4.962;2023-02-01T00:51:54;2.75;;;2.00;;
36221;SDS011;22266;52.340;4.962;2023-02-01T00:54:20;5.00;;;2.00;;
36221;SDS011;22266;52.340;4.962;2023-02-01T00:56:47;1.50;;;1.50;;
36221;SDS011;22266;52.340;4.962;2023-02-01T00:59:13;8.50;;;2.50;;
36221;SDS011;22266;52.340;4.962;2023-02-01T01:01:40;5.25;;;3.75;;
36221;SDS011;22266;52.340;4.962;2023-02-01T01:04:06;2.00;;;2.00;;
36221;SDS011;22266;52.340;4.962;2023-02-01T01:06:33;5.00;;;2.00;;
36221;SDS011;22266;52.340;4.962;2023-02-01T01:09:03;2.50;;;1.00;;
36221;SDS011;22266;52.340;4.962;2023-02-01T01:11:32;5.00;;;4.00;;
36221;SDS011;22266;52.340;4.962;2023-02-01T01:14:01;1.50;;;1.00;;
36221;SDS011;22266;52.340;4.962;2023-02-01T01:16:29;4.00;;;1.50;;
36221;SDS011;22266;52.340;4.962;2023-02-01T01:18:57;1.50;;;1.00;;
36221;SDS011;22266;52.340;4.962;2023-02-01T01:21:25;2.50;;;2.50;;
36221;SDS011;22266;52.340;4.962;2023-02-01T01:23:52;3.50;;;1.75;;
36221;SDS011;22266;52.340;4.962;2023-02-01T01:26:20;2.00;;;1.75;;
36221;SDS011;22266;52.340;4.962;2023-02-01T01:28:49;4.00;;;1.25;;
36221;SDS011;22266;52.340;4.962;2023-02-01T01:31:16;3.50;;;1.25;;
36221;SDS011;22266;52.340;4.962;2023-02-01T01:33:44;4.00;;;2.50;;
36221;SDS011;22266;52.340;4.962;2023-02-01T01:36:14;3.00;;;0.00;;
36221;SDS011;22266;52.340;4.962;2023-02-01T01:38:41;3.50;;;2.00;;
36221;SDS011;22266;52.340;4.962;2023-02-01T01:41:11;6.00;;;2.75;;
36221;SDS011;22266;52.340;4.962;2023-02-01T01:46:17;2.00;;;2.00;;
36221;SDS011;22266;52.340;4.962;2023-02-01T01:48:45;3.50;;;3.50;;
36221;SDS011;22266;52.340;4.962;2023-02-01T01:51:17;7.75;;;5.00;;
36221;SDS011;22266;52.340;4.962;2023-02-01T01:53:50;4.25;;;1.25;;
36221;SDS011;22266;52.340;4.962;2023-02-01T01:56:24;7.25;;;4.75;;
36221;SDS011;22266;52.340;4.962;2023-02-01T01:58:52;2.75;;;1.25;;
36221;SDS011;22266;52.340;4.962;2023-02-01T02:01:19;1.50;;;1.50;;
36221;SDS011;22266;52.340;4.962;2023-02-01T02:03:46;3.25;;;3.00;;
36221;SDS011;22266;52.340;4.962;2023-02-01T02:06:19;5.00;;;3.50;;
36221;SDS011;22266;52.340;4.962;2023-02-01T02:09:11;3.00;;;2.50;;
36221;SDS011;22266;52.340;4.962;2023-02-01T02:11:38;3.50;;;3.50;;
36221;SDS011;22266;52.340;4.962;2023-02-01T02:14:05;1.00;;;1.00;;
36221;SDS011;22266;52.340;4.962;2023-02-01T02:16:38;2.00;;;2.00;;
36221;SDS011;22266;52.340;4.962;2023-02-01T02:33:40;6.25;;;4.00;;
36221;SDS011;22266;52.340;4.962;2023-02-01T02:36:29;2.00;;;2.00;;
36221;SDS011;22266;52.340;4.962;2023-02-01T02:39:08;7.00;;;4.50;;
36221;SDS011;22266;52.340;4.962;2023-02-01T02:44:57;4.25;;;2.00;;
36221;SDS011;22266;52.340;4.962;2023-02-01T02:47:58;5.50;;;4.25;;
36221;SDS011;22266;52.340;4.962;2023-02-01T02:50:46;3.50;;;3.00;;
36221;SDS011;22266;52.340;4.962;2023-02-01T02:56:43;3.25;;;2.00;;
36221;SDS011;22266;52.340;4.962;2023-02-01T02:59:28;4.50;;;2.00;;
36221;SDS011;22266;52.340;4.962;2023-02-01T03:02:15;7.50;;;6.50;;
36221;SDS011;22266;52.340;4.962;2023-02-01T03:05:02;4.25;;;2.50;;
36221;SDS011;22266;52.340;4.962;2023-02-01T03:10:35;3.25;;;2.00;;
36221;SDS011;22266;52.340;4.962;2023-02-01T03:13:13;1.50;;;1.50;;
36221;SDS011;22266;52.340;4.962;2023-02-01T03:18:19;9.50;;;2.50;;
36221;SDS011;22266;52.340;4.962;2023-02-01T03:21:09;6.00;;;4.25;;
36221;SDS011;22266;52.340;4.962;2023-02-01T03:23:38;5.00;;;4.50;;
36221;SDS011;22266;52.340;4.962;2023-02-01T03:26:07;2.00;;;2.00;;
36221;SDS011;22266;52.340;4.962;2023-02-01T03:28:39;5.00;;;3.00;;
36221;SDS011;22266;52.340;4.962;2023-02-01T03:31:10;5.25;;;4.75;;
36221;SDS011;22266;52.340;4.962;2023-02-01T03:33:37;3.50;;;3.00;;
36221;SDS011;22266;52.340;4.962;2023-02-01T03:36:22;4.00;;;4.00;;
36221;SDS011;22266;52.340;4.962;2023-02-01T03:38:58;4.25;;;3.00;;
36221;SDS011;22266;52.340;4.962;2023-02-01T03:44:20;2.50;;;2.00;;
36221;SDS011;22266;52.340;4.962;2023-02-01T03:47:05;4.00;;;4.00;;
36221;SDS011;22266;52.340;4.962;2023-02-01T03:49:38;4.25;;;4.25;;
36221;SDS011;22266;52.340;4.962;2023-02-01T03:52:11;4.00;;;1.75;;
36221;SDS011;22266;52.340;4.962;2023-02-01T03:54:41;4.25;;;3.50;;
36221;SDS011;22266;52.340;4.962;2023-02-01T03:57:11;7.00;;;4.00;;
36221;SDS011;22266;52.340;4.962;2023-02-01T03:59:40;5.00;;;2.00;;
36221;SDS011;22266;52.340;4.962;2023-02-01T04:02:08;1.75;;;1.75;;
36221;SDS011;22266;52.340;4.962;2023-02-01T04:04:35;5.25;;;4.50;;
36221;SDS011;22266;52.340;4.962;2023-02-01T04:07:02;4.75;;;3.00;;
36221;SDS011;22266;52.340;4.962;2023-02-01T04:09:29;8.25;;;4.00;;
36221;SDS011;22266;52.340;4.962;2023-02-01T04:11:56;6.50;;;4.25;;
36221;SDS011;22266;52.340;4.962;2023-02-01T04:14:22;8.25;;;2.00;;
36221;SDS011;22266;52.340;4.962;2023-02-01T04:16:49;4.50;;;2.00;;
36221;SDS011;22266;52.340;4.962;2023-02-01T04:19:15;4.00;;;3.75;;
36221;SDS011;22266;52.340;4.962;2023-02-01T04:21:42;4.75;;;4.50;;
36221;SDS011;22266;52.340;4.962;2023-02-01T04:24:08;5.25;;;5.00;;
36221;SDS011;22266;52.340;4.962;2023-02-01T04:26:35;4.25;;;4.00;;
36221;SDS011;22266;52.340;4.962;2023-02-01T04:29:01;5.25;;;4.75;;
36221;SDS011;22266;52.340;4.962;2023-02-01T04:31:28;5.25;;;2.75;;
36221;SDS011;22266;52.340;4.962;2023-02-01T04:33:55;4.75;;;4.00;;
36221;SDS011;22266;52.340;4.962;2023-02-01T04:36:23;4.25;;;2.00;;
36221;SDS011;22266;52.340;4.962;2023-02-01T04:38:50;3.50;;;3.50;;
36221;SDS011;22266;52.340;4.962;2023-02-01T04:41:18;8.75;;;4.00;;
36221;SDS011;22266;52.340;4.962;2023-02-01T04:43:46;2.00;;;2.00;;
36221;SDS011;22266;52.340;4.962;2023-02-01T04:46:12;4.00;;;3.00;;
36221;SDS011;22266;52.340;4.962;2023-02-01T04:48:39;1.50;;;1.00;;
36221;SDS011;22266;52.340;4.962;2023-02-01T04:51:06;3.00;;;1.75;;
36221;SDS011;22266;52.340;4.962;2023-02-01T04:53:32;2.00;;;2.00;;
36221;SDS011;22266;52.340;4.962;2023-02-01T04:55:59;5.50;;;4.00;;
36221;SDS011;22266;52.340;4.962;2023-02-01T04:58:25;4.50;;;4.00;;
36221;SDS011;22266;52.340;4.962;2023-02-01T05:00:52;5.25;;;2.50;;
36221;SDS011;22266;52.340;4.962;2023-02-01T05:03:18;2.00;;;2.00;;
36221;SDS011;22266;52.340;4.962;2023-02-01T05:05:47;7.50;;;5.00;;
36221;SDS011;22266;52.340;4.962;2023-02-01T05:08:14;4.25;;;3.50;;
36221;SDS011;22266;52.340;4.962;2023-02-01T05:10:41;8.00;;;4.75;;
36221;SDS011;22266;52.340;4.962;2023-02-01T05:13:08;3.00;;;3.00;;
36221;SDS011;22266;52.340;4.962;2023-02-01T05:15:54;5.50;;;2.00;;
36221;SDS011;22266;52.340;4.962;2023-02-01T05:18:21;3.75;;;3.00;;
36221;SDS011;22266;52.340;4.962;2023-02-01T05:20:47;6.75;;;4.50;;
36221;SDS011;22266;52.340;4.962;2023-02-01T05:23:13;5.00;;;2.00;;
36221;SDS011;22266;52.340;4.962;2023-02-01T05:25:40;4.50;;;4.50;;
36221;SDS011;22266;52.340;4.962;2023-02-01T05:28:06;5.00;;;4.00;;
36221;SDS011;22266;52.340;4.962;2023-02-01T05:30:33;2.50;;;2.50;;
36221;SDS011;22266;52.340;4.962;2023-02-01T05:33:01;8.75;;;3.50;;
36221;SDS011;22266;52.340;4.962;2023-02-01T05:35:28;1.50;;;1.50;;
36221;SDS011;22266;52.340;4.962;2023-02-01T05:37:55;4.25;;;4.00;;
36221;SDS011;22266;52.340;4.962;2023-02-01T05:40:21;1.50;;;1.50;;
36221;SDS011;22266;52.340;4.962;2023-02-01T05:42:48;2.00;;;2.00;;
36221;SDS011;22266;52.340;4.962;2023-02-01T05:45:15;11.75;;;8.25;;
36221;SDS011;22266;52.340;4.962;2023-02-01T05:47:42;13.50;;;11.75;;
36221;SDS011;22266;52.340;4.962;2023-02-01T05:50:08;28.00;;;20.50;;
36221;SDS011;22266;52.340;4.962;2023-02-01T05:52:35;14.50;;;11.25;;
36221;SDS011;22266;52.340;4.962;2023-02-01T05:55:01;13.00;;;7.50;;
36221;SDS011;22266;52.340;4.962;2023-02-01T05:57:28;19.00;;;19.00;;
36221;SDS011;22266;52.340;4.962;2023-02-01T05:59:54;21.50;;;20.00;;
36221;SDS011;22266;52.340;4.962;2023-02-01T06:02:21;10.75;;;10.75;;
36221;SDS011;22266;52.340;4.962;2023-02-01T06:04:47;12.75;;;12.50;;
36221;SDS011;22266;52.340;4.962;2023-02-01T06:07:14;13.50;;;10.50;;
36221;SDS011;22266;52.340;4.962;2023-02-01T06:09:40;18.00;;;12.00;;
36221;SDS011;22266;52.340;4.962;2023-02-01T06:12:07;13.25;;;10.00;;
36221;SDS011;22266;52.340;4.962;2023-02-01T06:14:34;76.25;;;56.25;;
36221;SDS011;22266;52.340;4.962;2023-02-01T06:17:00;67.00;;;50.75;;
36221;SDS011;22266;52.340;4.962;2023-02-01T06:19:27;45.25;;;39.75;;
36221;SDS011;22266;52.340;4.962;2023-02-01T06:21:53;20.00;;;13.75;;
36221;SDS011;22266;52.340;4.962;2023-02-01T06:24:19;15.00;;;12.75;;
36221;SDS011;22266;52.340;4.962;2023-02-01T06:26:46;8.00;;;7.00;;
36221;SDS011;22266;52.340;4.962;2023-02-01T06:29:12;8.75;;;7.25;;
36221;SDS011;22266;52.340;4.962;2023-02-01T06:31:39;4.75;;;2.50;;
36221;SDS011;22266;52.340;4.962;2023-02-01T06:34:06;6.00;;;4.00;;
36221;SDS011;22266;52.340;4.962;2023-02-01T06:36:33;3.25;;;2.00;;
36221;SDS011;22266;52.340;4.962;2023-02-01T06:38:59;6.25;;;6.25;;
36221;SDS011;22266;52.340;4.962;2023-02-01T06:41:26;4.75;;;2.00;;
36221;SDS011;22266;52.340;4.962;2023-02-01T06:43:55;2.00;;;2.00;;
36221;SDS011;22266;52.340;4.962;2023-02-01T06:46:21;6.50;;;5.50;;
36221;SDS011;22266;52.340;4.962;2023-02-01T06:48:48;11.00;;;5.00;;
36221;SDS011;22266;52.340;4.962;2023-02-01T06:51:19;1.50;;;1.50;;
36221;SDS011;22266;52.340;4.962;2023-02-01T06:53:50;4.25;;;2.50;;
36221;SDS011;22266;52.340;4.962;2023-02-01T06:56:17;5.75;;;4.00;;
36221;SDS011;22266;52.340;4.962;2023-02-01T06:58:45;3.75;;;3.00;;
36221;SDS011;22266;52.340;4.962;2023-02-01T07:01:12;3.50;;;2.00;;
36221;SDS011;22266;52.340;4.962;2023-02-01T07:03:39;4.25;;;4.00;;
36221;SDS011;22266;52.340;4.962;2023-02-01T07:06:07;6.00;;;2.00;;
36221;SDS011;22266;52.340;4.962;2023-02-01T07:08:35;3.00;;;3.00;;
36221;SDS011;22266;52.340;4.962;2023-02-01T07:11:07;7.75;;;4.75;;
36221;SDS011;22266;52.340;4.962;2023-02-01T07:13:36;6.50;;;5.25;;
36221;SDS011;22266;52.340;4.962;2023-02-01T07:16:03;4.75;;;3.00;;
36221;SDS011;22266;52.340;4.962;2023-02-01T07:18:33;7.50;;;5.50;;
36221;SDS011;22266;52.340;4.962;2023-02-01T07:20:59;5.25;;;5.00;;
36221;SDS011;22266;52.340;4.962;2023-02-01T07:23:26;19.25;;;11.50;;
36221;SDS011;22266;52.340;4.962;2023-02-01T07:25:57;10.25;;;7.50;;
36221;SDS011;22266;52.340;4.962;2023-02-01T07:28:25;19.75;;;15.25;;
36221;SDS011;22266;52.340;4.962;2023-02-01T07:30:54;18.75;;;15.00;;
36221;SDS011;22266;52.340;4.962;2023-02-01T07:33:21;18.00;;;17.00;;
36221;SDS011;22266;52.340;4.962;2023-02-01T07:35:52;15.50;;;11.25;;
36221;SDS011;22266;52.340;4.962;2023-02-01T07:38:18;20.00;;;16.00;;
36221;SDS011;22266;52.340;4.962;2023-02-01T07:40:47;17.00;;;13.50;;
36221;SDS011;22266;52.340;4.962;2023-02-01T07:43:14;7.75;;;5.00;;
36221;SDS011;22266;52.340;4.962;2023-02-01T07:45:40;10.75;;;6.00;;
36221;SDS011;22266;52.340;4.962;2023-02-01T07:48:07;10.75;;;8.75;;
36221;SDS011;22266;52.340;4.962;2023-02-01T07:50:33;8.75;;;6.75;;
36221;SDS011;22266;52.340;4.962;2023-02-01T07:53:00;21.50;;;17.25;;
36221;SDS011;22266;52.340;4.962;2023-02-01T07:55:27;10.75;;;9.75;;
36221;SDS011;22266;52.340;4.962;2023-02-01T07:57:56;12.50;;;11.00;;
36221;SDS011;22266;52.340;4.962;2023-02-01T08:00:24;10.00;;;9.00;;
36221;SDS011;22266;52.340;4.962;2023-02-01T08:03:09;13.00;;;9.50;;
36221;SDS011;22266;52.340;4.962;2023-02-01T08:05:36;14.75;;;11.00;;
36221;SDS011;22266;52.340;4.962;2023-02-01T08:08:03;21.25;;;19.50;;
36221;SDS011;22266;52.340;4.962;2023-02-01T08:10:29;14.50;;;11.50;;
36221;SDS011;22266;52.340;4.962;2023-02-01T08:12:59;23.75;;;19.00;;
36221;SDS011;22266;52.340;4.962;2023-02-01T08:15:26;9.75;;;9.75;;
36221;SDS011;22266;52.340;4.962;2023-02-01T08:17:54;4.50;;;4.50;;
36221;SDS011;22266;52.340;4.962;2023-02-01T08:20:21;7.25;;;7.25;;
36221;SDS011;22266;52.340;4.962;2023-02-01T08:22:54;9.75;;;7.75;;
36221;SDS011;22266;52.340;4.962;2023-02-01T08:25:21;10.00;;;6.00;;
36221;SDS011;22266;52.340;4.962;2023-02-01T08:27:48;7.00;;;4.25;;
36221;SDS011;22266;52.340;4.962;2023-02-01T08:30:15;8.50;;;8.25;;
36221;SDS011;22266;52.340;4.962;2023-02-01T08:32:42;27.50;;;18.00;;
36221;SDS011;22266;52.340;4.962;2023-02-01T08:35:08;8.75;;;7.00;;
36221;SDS011;22266;52.340;4.962;2023-02-01T08:37:35;25.50;;;18.00;;
36221;SDS011;22266;52.340;4.962;2023-02-01T08:40:02;6.75;;;6.75;;
36221;SDS011;22266;52.340;4.962;2023-02-01T08:42:30;8.50;;;5.50;;
36221;SDS011;22266;52.340;4.962;2023-02-01T08:45:15;5.75;;;3.50;;
36221;SDS011;22266;52.340;4.962;2023-02-01T08:47:41;3.00;;;3.00;;
36221;SDS011;22266;52.340;4.962;2023-02-01T08:50:08;4.00;;;1.00;;
36221;SDS011;22266;52.340;4.962;2023-02-01T08:52:35;5.25;;;3.00;;
36221;SDS011;22266;52.340;4.962;2023-02-01T08:55:03;8.75;;;7.50;;
36221;SDS011;22266;52.340;4.962;2023-02-01T08:57:30;5.00;;;4.00;;
36221;SDS011;22266;52.340;4.962;2023-02-01T08:59:57;4.25;;;2.00;;
36221;SDS011;22266;52.340;4.962;2023-02-01T09:02:24;5.50;;;5.00;;
36221;SDS011;22266;52.340;4.962;2023-02-01T09:04:50;7.00;;;4.25;;
36221;SDS011;22266;52.340;4.962;2023-02-01T09:07:17;4.00;;;2.00;;
36221;SDS011;22266;52.340;4.962;2023-02-01T09:09:44;4.25;;;4.25;;
36221;SDS011;22266;52.340;4.962;2023-02-01T09:12:11;2.75;;;2.00;;
36221;SDS011;22266;52.340;4.962;2023-02-01T09:14:37;7.25;;;2.00;;
36221;SDS011;22266;52.340;4.962;2023-02-01T09:17:04;5.00;;;3.50;;
36221;SDS011;22266;52.340;4.962;2023-02-01T09:19:31;4.00;;;1.50;;
36221;SDS011;22266;52.340;4.962;2023-02-01T09:21:58;2.00;;;2.00;;
36221;SDS011;22266;52.340;4.962;2023-02-01T09:24:24;4.50;;;4.00;;
36221;SDS011;22266;52.340;4.962;2023-02-01T09:26:51;3.50;;;2.50;;
36221;SDS011;22266;52.340;4.962;2023-02-01T09:29:18;3.00;;;0.50;;
36221;SDS011;22266;52.340;4.962;2023-02-01T09:31:45;7.25;;;4.00;;
36221;SDS011;22266;52.340;4.962;2023-02-01T09:34:28;3.00;;;1.75;;
36221;SDS011;22266;52.340;4.962;2023-02-01T09:36:54;3.75;;;1.75;;
36221;SDS011;22266;52.340;4.962;2023-02-01T09:39:21;4.50;;;4.50;;
36221;SDS011;22266;52.340;4.962;2023-02-01T09:42:07;7.00;;;4.50;;
36221;SDS011;22266;52.340;4.962;2023-02-01T09:44:48;4.00;;;2.50;;
36221;SDS011;22266;52.340;4.962;2023-02-01T09:47:23;5.00;;;5.00;;
36221;SDS011;22266;52.340;4.962;2023-02-01T09:49:56;4.75;;;3.25;;
36221;SDS011;22266;52.340;4.962;2023-02-01T09:52:34;4.00;;;4.00;;
36221;SDS011;22266;52.340;4.962;2023-02-01T09:55:09;4.50;;;4.00;;
36221;SDS011;22266;52.340;4.962;2023-02-01T09:57:48;7.50;;;4.75;;
36221;SDS011;22266;52.340;4.962;2023-02-01T10:00:19;2.00;;;1.75;;
36221;SDS011;22266;52.340;4.962;2023-02-01T10:02:52;4.00;;;2.50;;
36221;SDS011;22266;52.340;4.962;2023-02-01T10:05:30;5.25;;;4.50;;
36221;SDS011;22266;52.340;4.962;2023-02-01T10:11:04;2.00;;;2.00;;
36221;SDS011;22266;52.340;4.962;2023-02-01T10:13:51;3.50;;;1.00;;
36221;SDS011;22266;52.340;4.962;2023-02-01T10:16:28;5.25;;;5.25;;
36221;SDS011;22266;52.340;4.962;2023-02-01T10:22:23;2.00;;;2.00;;
36221;SDS011;22266;52.340;4.962;2023-02-01T10:25:34;4.00;;;4.00;;
36221;SDS011;22266;52.340;4.962;2023-02-01T10:28:15;6.25;;;4.25;;
36221;SDS011;22266;52.340;4.962;2023-02-01T10:30:44;5.50;;;4.00;;
36221;SDS011;22266;52.340;4.962;2023-02-01T10:33:15;3.25;;;3.25;;
36221;SDS011;22266;52.340;4.962;2023-02-01T10:35:43;5.50;;;4.50;;
36221;SDS011;22266;52.340;4.962;2023-02-01T10:38:45;1.75;;;1.50;;
36221;SDS011;22266;52.340;4.962;2023-02-01T10:41:09;5.50;;;4.75;;
36221;SDS011;22266;52.340;4.962;2023-02-01T10:43:40;2.50;;;2.00;;
36221;SDS011;22266;52.340;4.962;2023-02-01T10:46:08;5.00;;;4.00;;
36221;SDS011;22266;52.340;4.962;2023-02-01T10:48:35;3.75;;;1.00;;
36221;SDS011;22266;52.340;4.962;2023-02-01T10:51:13;6.75;;;5.00;;
36221;SDS011;22266;52.340;4.962;2023-02-01T10:53:48;7.75;;;5.25;;
36221;SDS011;22266;52.340;4.962;2023-02-01T10:56:23;5.75;;;2.50;;
36221;SDS011;22266;52.340;4.962;2023-02-01T10:58:52;3.50;;;2.00;;
36221;SDS011;22266;52.340;4.962;2023-02-01T11:01:28;2.75;;;2.75;;
36221;SDS011;22266;52.340;4.962;2023-02-01T11:04:00;8.00;;;4.00;;
36221;SDS011;22266;52.340;4.962;2023-02-01T11:06:29;5.00;;;4.75;;
36221;SDS011;22266;52.340;4.962;2023-02-01T11:09:21;5.00;;;3.75;;
36221;SDS011;22266;52.340;4.962;2023-02-01T11:14:28;5.00;;;2.75;;
36221;SDS011;22266;52.340;4.962;2023-02-01T11:19:44;2.00;;;2.00;;
36221;SDS011;22266;52.340;4.962;2023-02-01T11:22:12;5.25;;;1.75;;
36221;SDS011;22266;52.340;4.962;2023-02-01T11:24:40;6.25;;;4.00;;
36221;SDS011;22266;52.340;4.962;2023-02-01T11:27:15;5.75;;;4.25;;
36221;SDS011;22266;52.340;4.962;2023-02-01T11:29:54;4.25;;;2.50;;
36221;SDS011;22266;52.340;4.962;2023-02-01T11:32:25;6.00;;;5.75;;
36221;SDS011;22266;52.340;4.962;2023-02-01T11:35:01;5.00;;;3.00;;
36221;SDS011;22266;52.340;4.962;2023-02-01T11:37:35;1.50;;;1.50;;
36221;SDS011;22266;52.340;4.962;2023-02-01T11:45:25;3.00;;;3.00;;
36221;SDS011;22266;52.340;4.962;2023-02-01T11:47:55;6.00;;;1.50;;
36221;SDS011;22266;52.340;4.962;2023-02-01T11:50:39;1.00;;;1.00;;
36221;SDS011;22266;52.340;4.962;2023-02-01T11:54:05;2.00;;;1.00;;
36221;SDS011;22266;52.340;4.962;2023-02-01T11:57:27;5.00;;;3.25;;
36221;SDS011;22266;52.340;4.962;2023-02-01T11:59:40;4.00;;;3.00;;
36221;SDS011;22266;52.340;4.962;2023-02-01T12:02:46;8.00;;;5.25;;
36221;SDS011;22266;52.340;4.962;2023-02-01T12:14:08;5.75;;;4.00;;
36221;SDS011;22266;52.340;4.962;2023-02-01T12:16:53;2.00;;;1.00;;
36221;SDS011;22266;52.340;4.962;2023-02-01T12:19:29;1.50;;;1.50;;
36221;SDS011;22266;52.340;4.962;2023-02-01T12:25:06;2.50;;;1.75;;
36221;SDS011;22266;52.340;4.962;2023-02-01T12:32:57;4.00;;;4.00;;
36221;SDS011;22266;52.340;4.962;2023-02-01T12:35:49;6.50;;;4.50;;
36221;SDS011;22266;52.340;4.962;2023-02-01T12:44:07;10.00;;;8.50;;
36221;SDS011;22266;52.340;4.962;2023-02-01T12:46:43;5.50;;;5.50;;
36221;SDS011;22266;52.340;4.962;2023-02-01T12:49:17;12.50;;;11.25;;
36221;SDS011;22266;52.340;4.962;2023-02-01T12:51:52;21.00;;;16.75;;
36221;SDS011;22266;52.340;4.962;2023-02-01T12:54:31;16.50;;;15.00;;
36221;SDS011;22266;52.340;4.962;2023-02-01T12:57:05;33.25;;;29.50;;
36221;SDS011;22266;52.340;4.962;2023-02-01T12:59:53;18.00;;;13.00;;
36221;SDS011;22266;52.340;4.962;2023-02-01T13:04:58;10.75;;;7.00;;
36221;SDS011;22266;52.340;4.962;2023-02-01T13:07:37;12.75;;;9.50;;
36221;SDS011;22266;52.340;4.962;2023-02-01T13:10:15;16.75;;;13.75;;
36221;SDS011;22266;52.340;4.962;2023-02-01T13:12:49;9.50;;;6.50;;
36221;SDS011;22266;52.340;4.962;2023-02-01T13:15:29;13.25;;;12.75;;
36221;SDS011;22266;52.340;4.962;2023-02-01T13:18:03;9.75;;;8.25;;
36221;SDS011;22266;52.340;4.962;2023-02-01T13:20:33;19.75;;;18.75;;
36221;SDS011;22266;52.340;4.962;2023-02-01T13:23:49;18.75;;;13.00;;
36221;SDS011;22266;52.340;4.962;2023-02-01T13:25:58;7.00;;;7.00;;
36221;SDS011;22266;52.340;4.962;2023-02-01T13:28:25;14.75;;;13.25;;
36221;SDS011;22266;52.340;4.962;2023-02-01T13:39:34;16.50;;;14.25;;
36221;SDS011;22266;52.340;4.962;2023-02-01T13:42:13;9.75;;;7.75;;
36221;SDS011;22266;52.340;4.962;2023-02-01T13:44:47;5.00;;;5.00;;
36221;SDS011;22266;52.340;4.962;2023-02-01T13:47:26;6.00;;;6.00;;
36221;SDS011;22266;52.340;4.962;2023-02-01T13:56:07;12.00;;;9.25;;
36221;SDS011;22266;52.340;4.962;2023-02-01T13:58:40;8.75;;;5.00;;
36221;SDS011;22266;52.340;4.962;2023-02-01T14:03:50;9.25;;;8.00;;
36221;SDS011;22266;52.340;4.962;2023-02-01T14:06:18;9.25;;;8.00;;
36221;SDS011;22266;52.340;4.962;2023-02-01T14:11:47;4.00;;;2.50;;
36221;SDS011;22266;52.340;4.962;2023-02-01T14:19:29;6.50;;;4.75;;
36221;SDS011;22266;52.340;4.962;2023-02-01T14:22:00;10.00;;;3.50;;
36221;SDS011;22266;52.340;4.962;2023-02-01T14:24:51;4.50;;;2.75;;
36221;SDS011;22266;52.340;4.962;2023-02-01T14:27:20;4.50;;;4.00;;
36221;SDS011;22266;52.340;4.962;2023-02-01T14:29:51;3.25;;;1.50;;
36221;SDS011;22266;52.340;4.962;2023-02-01T14:32:24;1.25;;;0.25;;
36221;SDS011;22266;52.340;4.962;2023-02-01T14:34:58;1.00;;;1.00;;
36221;SDS011;22266;52.340;4.962;2023-02-01T14:37:28;1.00;;;1.00;;
36221;SDS011;22266;52.340;4.962;2023-02-01T14:47:45;5.00;;;4.00;;
36221;SDS011;22266;52.340;4.962;2023-02-01T14:50:30;4.00;;;3.25;;
36221;SDS011;22266;52.340;4.962;2023-02-01T14:55:45;5.00;;;3.00;;
36221;SDS011;22266;52.340;4.962;2023-02-01T14:58:32;5.00;;;5.00;;
36221;SDS011;22266;52.340;4.962;2023-02-01T15:03:52;3.00;;;3.00;;
36221;SDS011;22266;52.340;4.962;2023-02-01T15:14:27;9.75;;;7.50;;
36221;SDS011;22266;52.340;4.962;2023-02-01T15:16:59;7.75;;;5.50;;
36221;SDS011;22266;52.340;4.962;2023-02-01T15:19:27;3.50;;;3.50;;
36221;SDS011;22266;52.340;4.962;2023-02-01T15:21:55;9.50;;;4.00;;
36221;SDS011;22266;52.340;4.962;2023-02-01T15:24:27;4.50;;;4.00;;
36221;SDS011;22266;52.340;4.962;2023-02-01T15:26:56;5.50;;;4.25;;
36221;SDS011;22266;52.340;4.962;2023-02-01T15:29:30;6.25;;;5.00;;
36221;SDS011;22266;52.340;4.962;2023-02-01T15:31:59;7.75;;;5.25;;
36221;SDS011;22266;52.340;4.962;2023-02-01T15:37:15;6.00;;;5.50;;
36221;SDS011;22266;52.340;4.962;2023-02-01T15:42:29;4.75;;;4.00;;
36221;SDS011;22266;52.340;4.962;2023-02-01T15:44:56;9.25;;;4.75;;
36221;SDS011;22266;52.340;4.962;2023-02-01T15:47:24;6.00;;;5.25;;
36221;SDS011;22266;52.340;4.962;2023-02-01T15:49:54;12.00;;;2.00;;
36221;SDS011;22266;52.340;4.962;2023-02-01T15:52:34;7.50;;;5.00;;
36221;SDS011;22266;52.340;4.962;2023-02-01T15:55:07;7.50;;;5.00;;
36221;SDS011;22266;52.340;4.962;2023-02-01T15:57:44;4.00;;;4.00;;
36221;SDS011;22266;52.340;4.962;2023-02-01T16:02:56;5.00;;;4.25;;
36221;SDS011;22266;52.340;4.962;2023-02-01T16:05:27;6.50;;;6.50;;
36221;SDS011;22266;52.340;4.962;2023-02-01T16:08:14;4.75;;;3.50;;
36221;SDS011;22266;52.340;4.962;2023-02-01T16:10:43;7.00;;;4.00;;
36221;SDS011;22266;52.340;4.962;2023-02-01T16:13:12;10.75;;;9.75;;
36221;SDS011;22266;52.340;4.962;2023-02-01T16:15:40;12.00;;;12.00;;
36221;SDS011;22266;52.340;4.962;2023-02-01T16:18:06;13.75;;;13.50;;
36221;SDS011;22266;52.340;4.962;2023-02-01T16:20:34;20.25;;;18.50;;
36221;SDS011;22266;52.340;4.962;2023-02-01T16:23:02;17.50;;;17.50;;
36221;SDS011;22266;52.340;4.962;2023-02-01T16:25:29;14.00;;;12.00;;
36221;SDS011;22266;52.340;4.962;2023-02-01T16:27:56;13.50;;;12.75;;
36221;SDS011;22266;52.340;4.962;2023-02-01T16:30:23;31.00;;;26.25;;
36221;SDS011;22266;52.340;4.962;2023-02-01T16:32:57;8.50;;;8.50;;
36221;SDS011;22266;52.340;4.962;2023-02-01T16:35:34;17.00;;;15.50;;
36221;SDS011;22266;52.340;4.962;2023-02-01T16:38:10;20.75;;;16.50;;
36221;SDS011;22266;52.340;4.962;2023-02-01T16:40:39;19.75;;;15.25;;
36221;SDS011;22266;52.340;4.962;2023-02-01T16:43:20;12.00;;;9.25;;
36221;SDS011;22266;52.340;4.962;2023-02-01T16:45:49;20.50;;;12.50;;
36221;SDS011;22266;52.340;4.962;2023-02-01T16:48:21;17.75;;;15.25;;
36221;SDS011;22266;52.340;4.962;2023-02-01T16:50:52;13.00;;;11.75;;
36221;SDS011;22266;52.340;4.962;2023-02-01T16:53:21;6.75;;;5.50;;
36221;SDS011;22266;52.340;4.962;2023-02-01T16:55:50;10.75;;;8.50;;
36221;SDS011;22266;52.340;4.962;2023-02-01T16:58:19;6.75;;;6.75;;
36221;SDS011;22266;52.340;4.962;2023-02-01T17:00:47;5.00;;;4.00;;
36221;SDS011;22266;52.340;4.962;2023-02-01T17:03:14;10.00;;;9.00;;
36221;SDS011;22266;52.340;4.962;2023-02-01T17:05:49;5.00;;;5.00;;
36221;SDS011;22266;52.340;4.962;2023-02-01T17:08:19;9.50;;;7.00;;
36221;SDS011;22266;52.340;4.962;2023-02-01T17:10:53;5.25;;;5.25;;
36221;SDS011;22266;52.340;4.962;2023-02-01T17:13:19;7.25;;;7.25;;
36221;SDS011;22266;52.340;4.962;2023-02-01T17:15:49;10.75;;;6.75;;